sensor_id;sensor_type;location;lat;lon;timestamp;pressure;altitude;pressure_sealevel;temperature;humidity
37778;BME280;23615;51.506;7.678;2023-04-12T00:02:06;99178.38;;;8.57;77.95
37778;BME280;23615;51.506;7.678;2023-04-12T00:04:31;99170.41;;;8.57;78.48
37778;BME280;23615;51.506;7.678;2023-04-12T00:06:58;99157.94;;;8.57;78.12
37778;BME280;23615;51.506;7.678;2023-04-12T00:09:25;99152.38;;;8.59;78.13
37778;BME280;23615;51.506;7.678;2023-04-12T00:11:54;99148.69;;;8.60;77.94
37778;BME280;23615;51.506;7.678;2023-04-12T00:14:21;99134.59;;;8.59;77.79
37778;BME280;23615;51.506;7.678;2023-04-12T00:16:46;99125.56;;;8.60;77.34
37778;BME280;23615;51.506;7.678;2023-04-12T00:19:11;99125.00;;;8.58;77.95
37778;BME280;23615;51.506;7.678;2023-04-12T00:21:37;99129.28;;;8.59;78.19
37778;BME280;23615;51.506;7.678;2023-04-12T00:24:02;99129.72;;;8.56;78.43
37778;BME280;23615;51.506;7.678;2023-04-12T00:26:27;99128.47;;;8.59;78.15
37778;BME280;23615;51.506;7.678;2023-04-12T00:28:52;99120.25;;;8.60;78.21
37778;BME280;23615;51.506;7.678;2023-04-12T00:31:18;99123.72;;;8.61;78.21
37778;BME280;23615;51.506;7.678;2023-04-12T00:33:43;99117.16;;;8.63;78.01
37778;BME280;23615;51.506;7.678;2023-04-12T00:36:08;99110.53;;;8.66;77.99
37778;BME280;23615;51.506;7.678;2023-04-12T00:38:34;99110.22;;;8.62;78.74
37778;BME280;23615;51.506;7.678;2023-04-12T00:40:59;99103.50;;;8.60;78.63
37778;BME280;23615;51.506;7.678;2023-04-12T00:43:24;99097.13;;;8.61;79.19
37778;BME280;23615;51.506;7.678;2023-04-12T00:45:53;99087.31;;;8.61;78.95
37778;BME280;23615;51.506;7.678;2023-04-12T00:48:18;99085.34;;;8.69;78.79
37778;BME280;23615;51.506;7.678;2023-04-12T00:50:44;99090.66;;;8.69;78.88
37778;BME280;23615;51.506;7.678;2023-04-12T00:53:12;99094.69;;;8.71;78.99
37778;BME280;23615;51.506;7.678;2023-04-12T00:55:43;99086.25;;;8.74;78.91
37778;BME280;23615;51.506;7.678;2023-04-12T00:58:08;99081.41;;;8.71;79.07
37778;BME280;23615;51.506;7.678;2023-04-12T01:00:34;99077.94;;;8.71;79.02
37778;BME280;23615;51.506;7.678;2023-04-12T01:03:00;99083.25;;;8.71;79.31
37778;BME280;23615;51.506;7.678;2023-04-12T01:05:27;99070.19;;;8.69;79.04
37778;BME280;23615;51.506;7.678;2023-04-12T01:08:04;99072.38;;;8.72;79.85
37778;BME280;23615;51.506;7.678;2023-04-12T01:10:38;99075.72;;;8.79;79.20
37778;BME280;23615;51.506;7.678;2023-04-12T01:13:29;99064.34;;;8.84;78.99
37778;BME280;23615;51.506;7.678;2023-04-12T01:18:40;99065.06;;;8.91;79.76
37778;BME280;23615;51.506;7.678;2023-04-12T01:21:13;99056.97;;;8.86;78.40
37778;BME280;23615;51.506;7.678;2023-04-12T01:26:43;99024.13;;;8.92;79.15
37778;BME280;23615;51.506;7.678;2023-04-12T01:29:11;99030.66;;;9.01;78.93
37778;BME280;23615;51.506;7.678;2023-04-12T01:31:53;99032.38;;;9.07;78.86
37778;BME280;23615;51.506;7.678;2023-04-12T01:34:20;99031.56;;;9.07;79.48
37778;BME280;23615;51.506;7.678;2023-04-12T01:36:47;99018.97;;;9.02;79.46
37778;BME280;23615;51.506;7.678;2023-04-12T01:39:13;99015.69;;;9.12;79.76
37778;BME280;23615;51.506;7.678;2023-04-12T01:41:42;99007.84;;;9.05;79.95
37778;BME280;23615;51.506;7.678;2023-04-12T01:44:12;99002.53;;;9.05;80.05
37778;BME280;23615;51.506;7.678;2023-04-12T01:46:38;98994.09;;;9.08;79.98
37778;BME280;23615;51.506;7.678;2023-04-12T01:49:03;99003.69;;;9.09;80.05
37778;BME280;23615;51.506;7.678;2023-04-12T01:51:50;98992.22;;;9.09;81.10
37778;BME280;23615;51.506;7.678;2023-04-12T01:54:21;98982.69;;;8.96;80.80
37778;BME280;23615;51.506;7.678;2023-04-12T01:56:58;98980.66;;;9.03;80.89
37778;BME280;23615;51.506;7.678;2023-04-12T01:59:30;98966.47;;;8.97;81.01
37778;BME280;23615;51.506;7.678;2023-04-12T02:01:56;98962.81;;;9.15;80.70
37778;BME280;23615;51.506;7.678;2023-04-12T02:04:23;98968.41;;;9.02;81.82
37778;BME280;23615;51.506;7.678;2023-04-12T02:06:51;98963.78;;;9.09;81.79
37778;BME280;23615;51.506;7.678;2023-04-12T02:09:17;98951.41;;;9.03;81.60
37778;BME280;23615;51.506;7.678;2023-04-12T02:11:46;98955.28;;;9.12;82.01
37778;BME280;23615;51.506;7.678;2023-04-12T02:14:12;98937.41;;;9.08;82.50
37778;BME280;23615;51.506;7.678;2023-04-12T02:16:37;98935.25;;;8.93;82.10
37778;BME280;23615;51.506;7.678;2023-04-12T02:19:03;98926.13;;;9.00;82.91
37778;BME280;23615;51.506;7.678;2023-04-12T02:21:39;98926.59;;;9.14;82.43
37778;BME280;23615;51.506;7.678;2023-04-12T02:24:05;98923.19;;;9.02;83.12
37778;BME280;23615;51.506;7.678;2023-04-12T02:26:30;98917.78;;;8.97;83.53
37778;BME280;23615;51.506;7.678;2023-04-12T02:28:55;98902.47;;;8.87;83.70
37778;BME280;23615;51.506;7.678;2023-04-12T02:31:21;98902.63;;;8.97;83.63
37778;BME280;23615;51.506;7.678;2023-04-12T02:33:47;98894.25;;;9.06;83.56
37778;BME280;23615;51.506;7.678;2023-04-12T02:36:13;98886.84;;;8.91;83.82
37778;BME280;23615;51.506;7.678;2023-04-12T02:38:38;98885.47;;;8.88;84.61
37778;BME280;23615;51.506;7.678;2023-04-12T02:41:03;98873.22;;;8.87;84.57
37778;BME280;23615;51.506;7.678;2023-04-12T02:43:29;98871.75;;;8.80;84.49
37778;BME280;23615;51.506;7.678;2023-04-12T02:45:56;98861.59;;;8.77;84.82
37778;BME280;23615;51.506;7.678;2023-04-12T02:48:21;98851.44;;;8.74;85.27
37778;BME280;23615;51.506;7.678;2023-04-12T02:50:46;98848.00;;;8.90;84.63
37778;BME280;23615;51.506;7.678;2023-04-12T02:53:11;98849.03;;;8.89;85.13
37778;BME280;23615;51.506;7.678;2023-04-12T02:55:37;98844.50;;;8.73;85.52
37778;BME280;23615;51.506;7.678;2023-04-12T02:58:02;98844.41;;;8.84;85.81
37778;BME280;23615;51.506;7.678;2023-04-12T03:00:28;98831.28;;;8.78;85.84
37778;BME280;23615;51.506;7.678;2023-04-12T03:02:53;98829.44;;;8.78;85.84
37778;BME280;23615;51.506;7.678;2023-04-12T03:05:19;98827.75;;;8.72;85.59
37778;BME280;23615;51.506;7.678;2023-04-12T03:07:44;98821.22;;;8.80;85.28
37778;BME280;23615;51.506;7.678;2023-04-12T03:10:10;98813.72;;;8.77;85.92
37778;BME280;23615;51.506;7.678;2023-04-12T03:12:36;98797.84;;;8.82;86.15
37778;BME280;23615;51.506;7.678;2023-04-12T03:15:02;98788.16;;;8.76;85.83
37778;BME280;23615;51.506;7.678;2023-04-12T03:17:27;98785.75;;;8.74;86.57
37778;BME280;23615;51.506;7.678;2023-04-12T03:19:52;98781.81;;;8.77;85.81
37778;BME280;23615;51.506;7.678;2023-04-12T03:22:18;98782.63;;;8.77;85.92
37778;BME280;23615;51.506;7.678;2023-04-12T03:24:43;98770.59;;;8.75;85.81
37778;BME280;23615;51.506;7.678;2023-04-12T03:27:10;98773.44;;;8.68;86.17
37778;BME280;23615;51.506;7.678;2023-04-12T03:29:35;98754.34;;;8.71;86.10
37778;BME280;23615;51.506;7.678;2023-04-12T03:32:00;98761.59;;;8.76;86.17
37778;BME280;23615;51.506;7.678;2023-04-12T03:34:26;98751.44;;;8.73;86.31
37778;BME280;23615;51.506;7.678;2023-04-12T03:36:57;98730.25;;;8.78;85.30
37778;BME280;23615;51.506;7.678;2023-04-12T03:39:22;98720.88;;;8.75;85.90
37778;BME280;23615;51.506;7.678;2023-04-12T03:41:47;98711.47;;;8.68;85.72
37778;BME280;23615;51.506;7.678;2023-04-12T03:44:13;98707.69;;;8.80;85.84
37778;BME280;23615;51.506;7.678;2023-04-12T03:46:38;98711.56;;;8.73;85.75
37778;BME280;23615;51.506;7.678;2023-04-12T03:49:03;98691.50;;;8.65;86.01
37778;BME280;23615;51.506;7.678;2023-04-12T03:51:28;98689.91;;;8.64;86.29
37778;BME280;23615;51.506;7.678;2023-04-12T03:53:55;98684.31;;;8.66;85.61
37778;BME280;23615;51.506;7.678;2023-04-12T03:56:20;98686.09;;;8.60;86.14
37778;BME280;23615;51.506;7.678;2023-04-12T03:58:46;98678.88;;;8.55;86.80
37778;BME280;23615;51.506;7.678;2023-04-12T04:01:11;98672.66;;;8.50;86.46
37778;BME280;23615;51.506;7.678;2023-04-12T04:03:38;98665.03;;;8.53;86.24
37778;BME280;23615;51.506;7.678;2023-04-12T04:06:05;98660.97;;;8.51;87.15
37778;BME280;23615;51.506;7.678;2023-04-12T04:08:31;98657.63;;;8.55;86.21
37778;BME280;23615;51.506;7.678;2023-04-12T04:10:57;98645.84;;;8.51;86.89
37778;BME280;23615;51.506;7.678;2023-04-12T04:13:23;98646.47;;;8.58;86.50
37778;BME280;23615;51.506;7.678;2023-04-12T04:15:50;98649.38;;;8.57;86.46
37778;BME280;23615;51.506;7.678;2023-04-12T04:18:16;98633.75;;;8.60;86.97
37778;BME280;23615;51.506;7.678;2023-04-12T04:20:41;98626.81;;;8.59;86.58
37778;BME280;23615;51.506;7.678;2023-04-12T04:23:06;98620.44;;;8.60;87.04
37778;BME280;23615;51.506;7.678;2023-04-12T04:25:34;98612.53;;;8.66;86.67
37778;BME280;23615;51.506;7.678;2023-04-12T04:28:03;98599.88;;;8.73;86.46
37778;BME280;23615;51.506;7.678;2023-04-12T04:30:29;98607.22;;;8.66;86.62
37778;BME280;23615;51.506;7.678;2023-04-12T04:32:58;98606.13;;;8.61;86.25
37778;BME280;23615;51.506;7.678;2023-04-12T04:35:23;98600.31;;;8.65;86.21
37778;BME280;23615;51.506;7.678;2023-04-12T04:37:48;98609.00;;;8.60;86.69
37778;BME280;23615;51.506;7.678;2023-04-12T04:40:15;98601.03;;;8.60;86.49
37778;BME280;23615;51.506;7.678;2023-04-12T04:42:41;98595.91;;;8.53;87.01
37778;BME280;23615;51.506;7.678;2023-04-12T04:45:07;98586.38;;;8.57;87.02
37778;BME280;23615;51.506;7.678;2023-04-12T04:47:38;98583.00;;;8.62;87.41
37778;BME280;23615;51.506;7.678;2023-04-12T04:50:04;98585.91;;;8.60;86.82
37778;BME280;23615;51.506;7.678;2023-04-12T04:52:30;98583.56;;;8.64;86.85
37778;BME280;23615;51.506;7.678;2023-04-12T04:54:55;98574.03;;;8.68;86.84
37778;BME280;23615;51.506;7.678;2023-04-12T04:57:22;98579.47;;;8.78;86.28
37778;BME280;23615;51.506;7.678;2023-04-12T04:59:47;98569.28;;;8.70;87.52
37778;BME280;23615;51.506;7.678;2023-04-12T05:02:13;98573.78;;;8.70;86.99
37778;BME280;23615;51.506;7.678;2023-04-12T05:04:38;98571.06;;;8.65;87.19
37778;BME280;23615;51.506;7.678;2023-04-12T05:07:03;98566.66;;;8.75;87.33
37778;BME280;23615;51.506;7.678;2023-04-12T05:09:28;98564.28;;;8.74;87.44
37778;BME280;23615;51.506;7.678;2023-04-12T05:11:54;98550.34;;;8.67;87.70
37778;BME280;23615;51.506;7.678;2023-04-12T05:14:19;98559.44;;;8.71;87.89
37778;BME280;23615;51.506;7.678;2023-04-12T05:16:45;98547.25;;;8.75;87.82
37778;BME280;23615;51.506;7.678;2023-04-12T05:19:10;98552.84;;;8.73;88.08
37778;BME280;23615;51.506;7.678;2023-04-12T05:21:35;98541.44;;;8.78;88.30
37778;BME280;23615;51.506;7.678;2023-04-12T05:24:01;98520.50;;;8.81;87.66
37778;BME280;23615;51.506;7.678;2023-04-12T05:26:26;98527.66;;;8.81;87.80
37778;BME280;23615;51.506;7.678;2023-04-12T05:28:51;98526.91;;;8.85;88.09
37778;BME280;23615;51.506;7.678;2023-04-12T05:31:16;98522.78;;;8.73;88.04
37778;BME280;23615;51.506;7.678;2023-04-12T05:33:42;98518.63;;;8.82;87.75
37778;BME280;23615;51.506;7.678;2023-04-12T05:36:09;98510.13;;;8.85;87.65
37778;BME280;23615;51.506;7.678;2023-04-12T05:38:34;98511.47;;;8.82;87.86
37778;BME280;23615;51.506;7.678;2023-04-12T05:41:00;98508.47;;;8.79;87.94
37778;BME280;23615;51.506;7.678;2023-04-12T05:43:28;98505.50;;;8.75;88.41
37778;BME280;23615;51.506;7.678;2023-04-12T05:45:53;98502.69;;;8.82;88.08
37778;BME280;23615;51.506;7.678;2023-04-12T05:48:19;98508.69;;;8.72;88.63
37778;BME280;23615;51.506;7.678;2023-04-12T05:50:51;98501.19;;;8.91;89.19
37778;BME280;23615;51.506;7.678;2023-04-12T05:53:17;98491.75;;;8.83;89.56
37778;BME280;23615;51.506;7.678;2023-04-12T05:55:43;98493.34;;;8.79;89.95
37778;BME280;23615;51.506;7.678;2023-04-12T05:58:08;98487.66;;;8.71;90.35
37778;BME280;23615;51.506;7.678;2023-04-12T06:00:34;98486.59;;;8.72;90.49
37778;BME280;23615;51.506;7.678;2023-04-12T06:03:00;98485.03;;;8.76;89.90
37778;BME280;23615;51.506;7.678;2023-04-12T06:05:25;98486.72;;;8.82;90.28
37778;BME280;23615;51.506;7.678;2023-04-12T06:07:51;98481.09;;;8.78;90.56
37778;BME280;23615;51.506;7.678;2023-04-12T06:10:16;98483.19;;;8.76;91.61
37778;BME280;23615;51.506;7.678;2023-04-12T06:12:42;98477.75;;;8.66;91.86
37778;BME280;23615;51.506;7.678;2023-04-12T06:15:07;98477.63;;;8.78;92.32
37778;BME280;23615;51.506;7.678;2023-04-12T06:17:33;98468.81;;;8.72;92.15
37778;BME280;23615;51.506;7.678;2023-04-12T06:19:58;98461.00;;;8.66;92.92
37778;BME280;23615;51.506;7.678;2023-04-12T06:22:24;98462.13;;;8.70;93.15
37778;BME280;23615;51.506;7.678;2023-04-12T06:24:49;98458.34;;;8.66;93.46
37778;BME280;23615;51.506;7.678;2023-04-12T06:27:15;98452.50;;;8.63;93.72
37778;BME280;23615;51.506;7.678;2023-04-12T06:29:40;98448.25;;;8.68;93.79
37778;BME280;23615;51.506;7.678;2023-04-12T06:32:05;98444.00;;;8.67;93.63
37778;BME280;23615;51.506;7.678;2023-04-12T06:34:31;98434.97;;;8.68;93.05
37778;BME280;23615;51.506;7.678;2023-04-12T06:36:56;98438.69;;;8.67;94.31
37778;BME280;23615;51.506;7.678;2023-04-12T06:39:21;98434.16;;;8.67;94.15
37778;BME280;23615;51.506;7.678;2023-04-12T06:41:47;98420.84;;;8.62;94.27
37778;BME280;23615;51.506;7.678;2023-04-12T06:44:14;98420.06;;;8.67;94.47
37778;BME280;23615;51.506;7.678;2023-04-12T06:46:39;98408.75;;;8.76;94.94
37778;BME280;23615;51.506;7.678;2023-04-12T06:49:05;98402.88;;;8.74;94.43
37778;BME280;23615;51.506;7.678;2023-04-12T06:51:30;98396.50;;;8.75;94.93
37778;BME280;23615;51.506;7.678;2023-04-12T06:53:55;98396.47;;;8.70;95.00
37778;BME280;23615;51.506;7.678;2023-04-12T06:56:22;98396.72;;;8.69;95.23
37778;BME280;23615;51.506;7.678;2023-04-12T06:58:47;98383.75;;;8.77;95.63
37778;BME280;23615;51.506;7.678;2023-04-12T07:01:12;98378.94;;;8.74;94.94
37778;BME280;23615;51.506;7.678;2023-04-12T07:03:38;98381.88;;;8.73;95.24
37778;BME280;23615;51.506;7.678;2023-04-12T07:06:04;98384.53;;;8.73;95.86
37778;BME280;23615;51.506;7.678;2023-04-12T07:08:31;98382.34;;;8.70;96.06
37778;BME280;23615;51.506;7.678;2023-04-12T07:10:57;98373.63;;;8.74;96.35
37778;BME280;23615;51.506;7.678;2023-04-12T07:13:22;98367.00;;;8.77;96.18
37778;BME280;23615;51.506;7.678;2023-04-12T07:15:48;98367.06;;;8.82;96.30
37778;BME280;23615;51.506;7.678;2023-04-12T07:18:15;98359.34;;;8.80;97.05
37778;BME280;23615;51.506;7.678;2023-04-12T07:20:40;98351.00;;;8.72;97.21
37778;BME280;23615;51.506;7.678;2023-04-12T07:23:05;98341.22;;;8.77;98.04
37778;BME280;23615;51.506;7.678;2023-04-12T07:25:30;98344.97;;;8.81;97.60
37778;BME280;23615;51.506;7.678;2023-04-12T07:27:56;98342.09;;;8.88;97.45
37778;BME280;23615;51.506;7.678;2023-04-12T07:30:21;98343.03;;;9.04;96.97
37778;BME280;23615;51.506;7.678;2023-04-12T07:32:47;98335.84;;;9.04;97.15
37778;BME280;23615;51.506;7.678;2023-04-12T07:35:12;98333.50;;;9.08;96.84
37778;BME280;23615;51.506;7.678;2023-04-12T07:37:37;98318.41;;;9.18;96.65
37778;BME280;23615;51.506;7.678;2023-04-12T07:40:03;98324.78;;;9.17;96.94
37778;BME280;23615;51.506;7.678;2023-04-12T07:42:28;98311.78;;;9.26;96.98
37778;BME280;23615;51.506;7.678;2023-04-12T07:44:54;98308.88;;;9.27;97.54
37778;BME280;23615;51.506;7.678;2023-04-12T07:47:19;98313.09;;;9.23;97.42
37778;BME280;23615;51.506;7.678;2023-04-12T07:49:44;98304.63;;;9.26;97.27
37778;BME280;23615;51.506;7.678;2023-04-12T07:52:10;98305.19;;;9.33;97.22
37778;BME280;23615;51.506;7.678;2023-04-12T07:54:36;98297.75;;;9.35;97.25
37778;BME280;23615;51.506;7.678;2023-04-12T07:57:02;98297.22;;;9.38;97.94
37778;BME280;23615;51.506;7.678;2023-04-12T07:59:28;98295.66;;;9.43;97.78
37778;BME280;23615;51.506;7.678;2023-04-12T08:01:54;98290.59;;;9.41;97.40
37778;BME280;23615;51.506;7.678;2023-04-12T08:04:20;98286.59;;;9.44;97.34
37778;BME280;23615;51.506;7.678;2023-04-12T08:06:45;98280.44;;;9.38;97.71
37778;BME280;23615;51.506;7.678;2023-04-12T08:09:10;98283.94;;;9.44;97.64
37778;BME280;23615;51.506;7.678;2023-04-12T08:11:36;98285.25;;;9.36;98.32
37778;BME280;23615;51.506;7.678;2023-04-12T08:14:01;98271.44;;;9.49;98.49
37778;BME280;23615;51.506;7.678;2023-04-12T08:16:26;98273.91;;;9.61;98.66
37778;BME280;23615;51.506;7.678;2023-04-12T08:18:52;98268.38;;;9.72;98.14
37778;BME280;23615;51.506;7.678;2023-04-12T08:21:17;98262.56;;;9.91;98.45
37778;BME280;23615;51.506;7.678;2023-04-12T08:23:42;98258.56;;;9.93;98.17
37778;BME280;23615;51.506;7.678;2023-04-12T08:26:08;98255.69;;;10.10;97.59
37778;BME280;23615;51.506;7.678;2023-04-12T08:28:34;98256.53;;;10.31;97.68
37778;BME280;23615;51.506;7.678;2023-04-12T08:30:59;98252.28;;;10.40;97.63
37778;BME280;23615;51.506;7.678;2023-04-12T08:33:25;98244.81;;;10.47;97.86
37778;BME280;23615;51.506;7.678;2023-04-12T08:35:50;98252.28;;;10.35;97.49
37778;BME280;23615;51.506;7.678;2023-04-12T08:38:17;98259.22;;;10.36;97.02
37778;BME280;23615;51.506;7.678;2023-04-12T08:40:42;98260.53;;;10.33;95.31
37778;BME280;23615;51.506;7.678;2023-04-12T08:43:10;98261.84;;;10.21;95.83
37778;BME280;23615;51.506;7.678;2023-04-12T08:45:36;98270.06;;;10.14;95.75
37778;BME280;23615;51.506;7.678;2023-04-12T08:48:03;98267.97;;;10.16;95.67
37778;BME280;23615;51.506;7.678;2023-04-12T08:50:30;98266.06;;;10.11;95.02
37778;BME280;23615;51.506;7.678;2023-04-12T08:52:57;98266.06;;;10.01;95.92
37778;BME280;23615;51.506;7.678;2023-04-12T08:55:22;98257.53;;;9.99;96.94
37778;BME280;23615;51.506;7.678;2023-04-12T08:57:48;98251.38;;;9.94;97.40
37778;BME280;23615;51.506;7.678;2023-04-12T09:00:16;98260.22;;;10.14;97.41
37778;BME280;23615;51.506;7.678;2023-04-12T09:02:41;98248.28;;;10.27;97.09
37778;BME280;23615;51.506;7.678;2023-04-12T09:05:10;98248.00;;;10.19;96.70
37778;BME280;23615;51.506;7.678;2023-04-12T09:07:36;98240.00;;;10.19;97.55
37778;BME280;23615;51.506;7.678;2023-04-12T09:10:02;98224.56;;;10.41;98.33
37778;BME280;23615;51.506;7.678;2023-04-12T09:12:28;98224.03;;;10.49;98.88
37778;BME280;23615;51.506;7.678;2023-04-12T09:15:13;98222.41;;;10.48;99.58
37778;BME280;23615;51.506;7.678;2023-04-12T09:17:40;98214.41;;;10.78;98.72
37778;BME280;23615;51.506;7.678;2023-04-12T09:22:40;98218.66;;;10.84;98.48
37778;BME280;23615;51.506;7.678;2023-04-12T09:25:08;98211.47;;;10.75;98.58
37778;BME280;23615;51.506;7.678;2023-04-12T09:27:47;98211.22;;;10.81;98.55
37778;BME280;23615;51.506;7.678;2023-04-12T09:30:14;98209.34;;;10.82;98.89
37778;BME280;23615;51.506;7.678;2023-04-12T09:32:39;98211.72;;;10.94;98.91
37778;BME280;23615;51.506;7.678;2023-04-12T09:35:05;98215.97;;;11.05;97.54
37778;BME280;23615;51.506;7.678;2023-04-12T09:37:31;98206.91;;;11.01;95.99
37778;BME280;23615;51.506;7.678;2023-04-12T09:40:04;98209.34;;;10.82;95.52
37778;BME280;23615;51.506;7.678;2023-04-12T09:42:32;98212.84;;;10.62;95.95
37778;BME280;23615;51.506;7.678;2023-04-12T09:44:57;98204.81;;;10.57;96.78
37778;BME280;23615;51.506;7.678;2023-04-12T09:47:39;98205.88;;;10.71;96.62
37778;BME280;23615;51.506;7.678;2023-04-12T09:50:06;98202.16;;;10.67;97.43
37778;BME280;23615;51.506;7.678;2023-04-12T09:52:36;98208.56;;;10.71;97.85
37778;BME280;23615;51.506;7.678;2023-04-12T09:55:07;98206.94;;;10.91;96.92
37778;BME280;23615;51.506;7.678;2023-04-12T09:57:40;98202.16;;;10.82;97.41
37778;BME280;23615;51.506;7.678;2023-04-12T10:00:06;98201.91;;;10.74;97.06
37778;BME280;23615;51.506;7.678;2023-04-12T10:02:37;98207.22;;;10.64;97.66
37778;BME280;23615;51.506;7.678;2023-04-12T10:05:02;98201.34;;;10.72;98.41
37778;BME280;23615;51.506;7.678;2023-04-12T10:07:28;98200.00;;;10.74;98.39
37778;BME280;23615;51.506;7.678;2023-04-12T10:09:54;98203.47;;;10.80;99.13
37778;BME280;23615;51.506;7.678;2023-04-12T10:12:22;98201.00;;;11.04;98.41
37778;BME280;23615;51.506;7.678;2023-04-12T10:14:48;98196.72;;;11.13;99.41
37778;BME280;23615;51.506;7.678;2023-04-12T10:17:16;98193.75;;;11.24;98.77
37778;BME280;23615;51.506;7.678;2023-04-12T10:19:50;98187.63;;;11.14;96.94
37778;BME280;23615;51.506;7.678;2023-04-12T10:22:16;98185.47;;;11.26;97.30
37778;BME280;23615;51.506;7.678;2023-04-12T10:24:42;98183.34;;;11.28;98.75
37778;BME280;23615;51.506;7.678;2023-04-12T10:27:07;98187.03;;;11.37;98.46
37778;BME280;23615;51.506;7.678;2023-04-12T10:29:34;98185.91;;;11.48;98.15
37778;BME280;23615;51.506;7.678;2023-04-12T10:34:43;98179.81;;;11.38;95.56
37778;BME280;23615;51.506;7.678;2023-04-12T10:37:09;98174.28;;;11.14;96.40
37778;BME280;23615;51.506;7.678;2023-04-12T10:39:44;98178.50;;;11.30;97.05
37778;BME280;23615;51.506;7.678;2023-04-12T10:44:40;98174.06;;;11.05;98.88
37778;BME280;23615;51.506;7.678;2023-04-12T10:47:06;98169.00;;;11.09;99.83
37778;BME280;23615;51.506;7.678;2023-04-12T10:49:31;98169.75;;;11.19;99.69
37778;BME280;23615;51.506;7.678;2023-04-12T10:54:33;98161.72;;;11.24;99.11
37778;BME280;23615;51.506;7.678;2023-04-12T10:56:59;98164.22;;;11.60;97.65
37778;BME280;23615;51.506;7.678;2023-04-12T10:59:25;98166.03;;;11.75;96.93
37778;BME280;23615;51.506;7.678;2023-04-12T11:02:11;98155.84;;;11.77;95.21
37778;BME280;23615;51.506;7.678;2023-04-12T11:04:36;98165.69;;;11.91;96.59
37778;BME280;23615;51.506;7.678;2023-04-12T11:07:06;98169.50;;;12.14;94.82
37778;BME280;23615;51.506;7.678;2023-04-12T11:09:43;98157.94;;;12.24;94.13
37778;BME280;23615;51.506;7.678;2023-04-12T11:14:46;98151.38;;;12.06;92.23
37778;BME280;23615;51.506;7.678;2023-04-12T11:19:38;98153.66;;;11.84;94.40
37778;BME280;23615;51.506;7.678;2023-04-12T11:22:10;98156.81;;;11.96;92.05
37778;BME280;23615;51.506;7.678;2023-04-12T11:24:39;98155.84;;;11.82;91.78
37778;BME280;23615;51.506;7.678;2023-04-12T11:27:05;98151.97;;;11.49;93.26
37778;BME280;23615;51.506;7.678;2023-04-12T11:29:31;98159.50;;;11.47;93.28
37778;BME280;23615;51.506;7.678;2023-04-12T11:32:02;98166.66;;;11.51;94.79
37778;BME280;23615;51.506;7.678;2023-04-12T11:34:31;98173.56;;;11.62;93.51
37778;BME280;23615;51.506;7.678;2023-04-12T11:36:57;98169.81;;;11.58;93.58
37778;BME280;23615;51.506;7.678;2023-04-12T11:39:25;98171.56;;;11.34;95.72
37778;BME280;23615;51.506;7.678;2023-04-12T11:41:51;98177.88;;;11.48;95.86
37778;BME280;23615;51.506;7.678;2023-04-12T11:44:17;98174.75;;;11.31;98.56
37778;BME280;23615;51.506;7.678;2023-04-12T11:46:44;98170.72;;;11.39;99.71
37778;BME280;23615;51.506;7.678;2023-04-12T11:49:09;98157.31;;;11.54;99.34
37778;BME280;23615;51.506;7.678;2023-04-12T11:51:35;98155.84;;;11.82;100.00
37778;BME280;23615;51.506;7.678;2023-04-12T11:54:00;98158.19;;;12.27;98.75
37778;BME280;23615;51.506;7.678;2023-04-12T11:56:27;98148.75;;;12.35;96.56
37778;BME280;23615;51.506;7.678;2023-04-12T11:58:52;98153.78;;;12.42;94.17
37778;BME280;23615;51.506;7.678;2023-04-12T12:01:19;98159.97;;;12.37;95.51
37778;BME280;23615;51.506;7.678;2023-04-12T12:03:45;98160.72;;;12.43;95.04
37778;BME280;23615;51.506;7.678;2023-04-12T12:06:12;98161.84;;;12.36;95.29
37778;BME280;23615;51.506;7.678;2023-04-12T12:08:38;98176.78;;;12.43;92.53
37778;BME280;23615;51.506;7.678;2023-04-12T12:11:04;98192.50;;;12.15;92.24
37778;BME280;23615;51.506;7.678;2023-04-12T12:13:49;98189.28;;;11.10;92.81
37778;BME280;23615;51.506;7.678;2023-04-12T12:16:15;98192.53;;;10.76;92.55
37778;BME280;23615;51.506;7.678;2023-04-12T12:18:42;98199.50;;;10.57;94.66
37778;BME280;23615;51.506;7.678;2023-04-12T12:21:09;98185.09;;;10.53;95.99
37778;BME280;23615;51.506;7.678;2023-04-12T12:23:35;98198.44;;;10.63;97.50
37778;BME280;23615;51.506;7.678;2023-04-12T12:26:01;98186.41;;;10.81;98.04
37778;BME280;23615;51.506;7.678;2023-04-12T12:28:28;98195.13;;;11.12;99.00
37778;BME280;23615;51.506;7.678;2023-04-12T12:30:54;98188.63;;;11.33;97.86
37778;BME280;23615;51.506;7.678;2023-04-12T12:33:21;98182.78;;;11.31;95.51
37778;BME280;23615;51.506;7.678;2023-04-12T12:35:54;98179.22;;;11.51;95.68
37778;BME280;23615;51.506;7.678;2023-04-12T12:38:20;98175.97;;;11.59;93.66
37778;BME280;23615;51.506;7.678;2023-04-12T12:40:45;98183.66;;;11.71;94.19
37778;BME280;23615;51.506;7.678;2023-04-12T12:43:17;98182.00;;;11.85;93.97
37778;BME280;23615;51.506;7.678;2023-04-12T12:45:43;98178.50;;;11.89;92.92
37778;BME280;23615;51.506;7.678;2023-04-12T12:48:08;98173.69;;;11.91;90.82
37778;BME280;23615;51.506;7.678;2023-04-12T12:50:34;98175.31;;;11.87;91.06
37778;BME280;23615;51.506;7.678;2023-04-12T12:53:02;98182.84;;;11.75;91.46
37778;BME280;23615;51.506;7.678;2023-04-12T12:55:29;98185.53;;;11.75;93.17
37778;BME280;23615;51.506;7.678;2023-04-12T12:57:56;98184.47;;;11.66;91.92
37778;BME280;23615;51.506;7.678;2023-04-12T13:00:23;98185.03;;;11.63;92.45
37778;BME280;23615;51.506;7.678;2023-04-12T13:02:49;98174.09;;;11.65;93.82
37778;BME280;23615;51.506;7.678;2023-04-12T13:05:15;98173.25;;;11.69;92.02
37778;BME280;23615;51.506;7.678;2023-04-12T13:07:41;98172.97;;;11.76;92.42
37778;BME280;23615;51.506;7.678;2023-04-12T13:10:07;98170.81;;;11.83;92.99
37778;BME280;23615;51.506;7.678;2023-04-12T13:12:33;98176.94;;;11.83;91.44
37778;BME280;23615;51.506;7.678;2023-04-12T13:14:59;98169.22;;;11.82;93.09
37778;BME280;23615;51.506;7.678;2023-04-12T13:17:28;98172.16;;;11.80;94.59
37778;BME280;23615;51.506;7.678;2023-04-12T13:19:54;98180.41;;;11.84;92.54
37778;BME280;23615;51.506;7.678;2023-04-12T13:22:19;98166.34;;;11.63;91.96
37778;BME280;23615;51.506;7.678;2023-04-12T13:24:45;98165.06;;;11.50;89.80
37778;BME280;23615;51.506;7.678;2023-04-12T13:27:12;98170.63;;;11.59;90.82